aviador You're here:

CYFS Decoded Metar

FORT SIMPSON in NT, CANADA
Report Time2017-06-22 21:00:00
UTC Time2017-06-22 22:08:32
Flight Rules Old
Wind320° at 12 kt
W.Decomp.*RWY 32: 11.2 kt HW 4.3 kt LCW
W.Rank320° ranks 3
Current wind is above 320° avg. (6.9)
Visibility9999 m
Phenomena:N/A
Clouds:Few 060 Hf
Few 080 Hf
Few 210 Hf
Expected CloudBase > 8,000 ft AGL from Temp-Dew spread
CeilingNone
Temp24°C (ISA +10)
Dew Point04°C (27% RH)
AAT18.3°C
QNH1019 hPa
Density Alt1,637 ft
Elevation554 ft
Report Wrong Elevation
Raw Report
CYFS 222100Z 32012KT 300V360 15SM FEW060 FEW080 FEW210 24/04 A3010
RMK CU2AC1CI1 AC TR CI TR SLP200 DENSITY ALT 1500FT=

Extra information for CYFS:More info

Metar Taf Metar & Taf Last 4 Metars F.Rules Stats Wind Profile Meteogram Temp Stats Airport Information Weather charts Add Link Nearby VenuesMetar ALERT Operation Metar Decoded Social comments